AirNav   Duncan Aviation - Near you to keep you flying
 
 1337 users online  

SN12 Jenkinson Airport
Meade, Kansas, USA

GOING TO MEADE?


FAA INFORMATION EFFECTIVE 15 JULY 2021

Location

FAA Identifier: SN12
Lat/Long: 37-21-50.0830N 100-28-16.5380W
37-21.834717N 100-28.275633W
37.3639119,-100.4712606
(estimated)
Elevation: 2737 ft. / 834 m (estimated)
Variation: 09E (1985)
From city: 8 miles NW of MEADE, KS
Time zone: UTC -5 (UTC -6 during Standard Time)
Zip code: 67864

Airport Operations

Airport use: Private use. Permission required prior to landing
Activation date: 11/1988
Control tower: no
ARTCC: KANSAS CITY CENTER
FSS: WICHITA FLIGHT SERVICE STATION
Attendance: UNATNDD
Wind indicator: yes
Segmented circle: no
Lights: FOR LIRL RWY 01/19 CALL 620 338-2426.

Airport Communications

WX AWOS-3 at MEJ (7 nm SE): 119.425 (620-873-8447)
WX AWOS-3 at 19S (19 nm NW): 118.4 (620-290-3873)

Nearby radio navigation aids

VOR radial/distance  VOR name  Freq  Var
LBLr040/30.6LIBERAL VORTAC112.3011E
GCKr149/35.4GARDEN CITY VORTAC113.3011E
DDCr209/36.6DODGE CITY VORTAC108.2008E

Airport Services

Runway Information

Runway 1/19

Dimensions: 3500 x 75 ft. / 1067 x 23 m
Surface: turf
Runway edge lights: low intensity
RUNWAY 1  RUNWAY 19
Traffic pattern: leftleft

Runway 12/30

Dimensions: 3030 x 50 ft. / 924 x 15 m
Surface: turf
RUNWAY 12  RUNWAY 30
Traffic pattern: leftleft

Airport Ownership and Management from official FAA records

Ownership: Privately-owned
Owner: J.J. JENKINSON JR.
8191 11 ROAD
MEADE, KS 67864
Phone (620) 338-2426

Additional Remarks

FOR CD CTC KANSAS CITY ARTCC AT 913-254-8508.

Instrument Procedures

There are no published instrument procedures at SN12.

Some nearby airports with instrument procedures:

KMEJ - Meade Municipal Airport (7 nm SE)
KLBL - Liberal Mid-America Regional Airport (30 nm SW)
KDDC - Dodge City Regional Airport (34 nm NE)
KGCK - Garden City Regional Airport (36 nm N)
KHQG - Hugoton Municipal Airport (45 nm W)
 
Loc | Ops | Rwys | IFR | FBO | Links
Com | Nav | Svcs | Stats | Notes

AirBoss

 
Area around SN12 (Jenkinson Airport)
 
Road maps at: MapQuest Bing Google
 
Aerial photo
No photo
 
Sectional chart

 
Airport distance calculator
Flying to Jenkinson Airport? Find the distance to fly.

From to SN12

Sunrise and sunset
Times for 05-Aug-2021
 Local
(UTC-5)
 Zulu
(UTC)
Morning civil twilight06:2211:22
Sunrise06:5111:51
Sunset20:4501:45
Evening civil twilight21:1402:14

Current date and time
Zulu (UTC)  05-Aug-2021 13:46:27
Local (UTC-5)  05-Aug-2021 08:46:27
 
METAR
K19S 
19nm NW 
051330Z AUTO 22005KT 5SM HZ CLR 19/15 A3015 RMK AO2 T01880149
KLBL 
31nm SW 
051256Z AUTO 23006KT 9SM CLR 17/15 A3014 RMK AO2 SLP183 T01670150 PNO $
KDDC 
34nm NE 
051252Z AUTO 23005KT 5SM HZ CLR 19/16 A3012 RMK AO2 SLP172 T01940156
KGCK 
35nm N 
051254Z 22003KT 6SM HZ CLR 17/14 A3012 RMK AO2 SLP174 T01670139
TAF
KLBL 
31nm SW 
051120Z 0512/0612 22010KT P6SM SKC FM060000 17008KT P6SM SKC
KDDC 
34nm NE 
051157Z 0512/0612 22008KT P6SM SCT200 TEMPO 0512/0515 5SM HZ FM051700 21012G18KT P6SM SKC FM060000 15009KT P6SM SKC
KGCK 
35nm N 
051120Z 0512/0612 22008KT P6SM FEW250 FM060000 18008KT P6SM SKC
NOTAMs
Click for the latest NOTAMs
NOTAMs are issued by the DoD/FAA and will open in a separate window not controlled by AirNav.

 

 
 

Would you like to see your business listed on this page?

 If your business provides an interesting product or service to pilots, flight crews, aircraft, or users of the Jenkinson Airport, you should consider listing it here.  To start the listing process, click on the button below
 
Add a business
 

Other Pages about Jenkinson Airport

Update a link
 
Copyright © AirNav, LLC. All rights reserved. Privacy Policy  Contact